createdAt,value
2022-10-30T00:02:25.022Z,3.25
2022-10-30T00:04:57.589Z,3.33
2022-10-30T00:07:30.139Z,3.47
2022-10-30T00:10:02.710Z,2.95
2022-10-30T00:12:35.498Z,3.47
2022-10-30T00:15:09.125Z,3.55
2022-10-30T00:17:41.976Z,3.58
2022-10-30T00:20:14.497Z,3.63
2022-10-30T00:22:47.044Z,3.40
2022-10-30T00:25:19.612Z,3.42
2022-10-30T00:27:52.149Z,3.33
2022-10-30T00:30:24.786Z,2.95
2022-10-30T00:32:57.969Z,3.38
2022-10-30T00:35:31.650Z,3.40
2022-10-30T00:38:04.471Z,3.47
2022-10-30T00:40:36.899Z,3.35
2022-10-30T00:43:33.298Z,3.70
2022-10-30T00:46:16.423Z,3.63
2022-10-30T00:48:55.316Z,3.50
2022-10-30T00:51:30.438Z,3.83
2022-10-30T00:54:05.219Z,3.40
2022-10-30T00:56:38.410Z,3.50
2022-10-30T00:59:17.409Z,3.72
2022-10-30T01:01:51.334Z,3.55
2022-10-30T01:04:29.088Z,3.40
2022-10-30T01:07:10.256Z,3.08
2022-10-30T01:09:43.708Z,3.15
2022-10-30T01:12:17.147Z,3.20
2022-10-30T01:14:55.083Z,3.05
2022-10-30T01:17:54.010Z,3.22
2022-10-30T01:20:57.194Z,3.53
2022-10-30T01:23:54.202Z,3.10
2022-10-30T01:26:39.233Z,3.00
2022-10-30T01:29:23.423Z,3.40
2022-10-30T01:31:59.474Z,2.88
2022-10-30T01:34:36.844Z,3.20
2022-10-30T01:37:29.743Z,3.20
2022-10-30T01:40:10.573Z,2.92
2022-10-30T01:42:48.360Z,3.00
2022-10-30T01:45:41.266Z,3.00
2022-10-30T01:48:25.190Z,2.67
2022-10-30T01:51:08.576Z,2.67
2022-10-30T01:53:44.401Z,2.70
2022-10-30T01:56:32.315Z,3.10
2022-10-30T01:59:16.624Z,3.08
2022-10-30T02:01:49.991Z,3.22
2022-10-30T02:04:22.755Z,2.50
2022-10-30T02:06:57.231Z,3.30
2022-10-30T02:09:30.561Z,2.72
2022-10-30T02:12:03.872Z,3.08
2022-10-30T02:14:41.962Z,2.73
2022-10-30T02:17:14.841Z,2.70
2022-10-30T02:19:47.670Z,2.47
2022-10-30T02:22:20.257Z,2.50
2022-10-30T02:24:52.914Z,2.70
2022-10-30T02:27:29.848Z,2.33
2022-10-30T02:30:02.560Z,2.58
2022-10-30T02:32:35.633Z,2.58
2022-10-30T02:35:09.289Z,2.30
2022-10-30T02:37:41.866Z,2.47
2022-10-30T02:40:15.210Z,2.90
2022-10-30T02:42:53.522Z,2.88
2022-10-30T02:45:26.157Z,2.65
2022-10-30T02:48:01.097Z,2.70
2022-10-30T02:50:35.805Z,2.33
2022-10-30T02:53:09.346Z,2.65
2022-10-30T02:55:41.984Z,2.85
2022-10-30T02:58:14.628Z,2.78
2022-10-30T03:00:48.357Z,2.78
2022-10-30T03:03:23.987Z,2.67
2022-10-30T03:06:00.050Z,2.50
2022-10-30T03:08:32.621Z,3.03
2022-10-30T03:11:08.217Z,2.63
2022-10-30T03:13:41.189Z,2.40
2022-10-30T03:16:18.946Z,2.70
2022-10-30T03:18:53.057Z,2.92
2022-10-30T03:21:27.266Z,2.30
2022-10-30T03:23:59.712Z,2.63
2022-10-30T03:26:32.226Z,2.38
2022-10-30T03:29:13.384Z,2.60
2022-10-30T03:31:46.023Z,2.60
2022-10-30T03:34:28.145Z,2.72
2022-10-30T03:37:00.937Z,2.50
2022-10-30T03:39:33.684Z,2.40
2022-10-30T03:42:08.377Z,2.55
2022-10-30T03:44:41.021Z,2.50
2022-10-30T03:47:14.155Z,2.60
2022-10-30T03:49:49.590Z,2.92
2022-10-30T03:52:25.568Z,2.70
2022-10-30T03:54:58.102Z,2.90
2022-10-30T03:57:30.709Z,2.65
2022-10-30T04:00:14.616Z,2.83
2022-10-30T04:02:49.149Z,2.63
2022-10-30T04:05:24.301Z,2.45
2022-10-30T04:08:01.512Z,3.30
2022-10-30T04:10:43.421Z,2.75
2022-10-30T04:13:18.918Z,3.30
2022-10-30T04:15:58.008Z,2.95
2022-10-30T04:18:32.128Z,2.63
2022-10-30T04:21:04.980Z,2.80
2022-10-30T04:23:39.802Z,2.83
2022-10-30T04:26:12.987Z,3.60
2022-10-30T04:28:48.633Z,5.07
2022-10-30T04:31:21.234Z,3.30
2022-10-30T04:33:54.372Z,6.40
2022-10-30T04:36:33.764Z,2.70
2022-10-30T04:39:06.649Z,2.60
2022-10-30T04:41:40.523Z,2.45
2022-10-30T04:44:21.031Z,2.53
2022-10-30T04:46:53.771Z,2.83
2022-10-30T04:49:26.313Z,2.85
2022-10-30T04:51:58.766Z,2.40
2022-10-30T04:54:31.383Z,2.90
2022-10-30T04:57:04.022Z,2.47
2022-10-30T04:59:36.612Z,2.85
2022-10-30T05:02:09.441Z,2.80
2022-10-30T05:04:42.994Z,2.40
2022-10-30T05:07:16.391Z,2.22
2022-10-30T05:09:49.231Z,3.00
2022-10-30T05:12:22.761Z,3.00
2022-10-30T05:14:59.763Z,2.67
2022-10-30T05:17:32.428Z,2.90
2022-10-30T05:20:06.503Z,2.45
2022-10-30T05:22:38.953Z,2.83
2022-10-30T05:25:13.136Z,2.72
2022-10-30T05:27:45.706Z,3.25
2022-10-30T05:30:18.260Z,2.85
2022-10-30T05:32:51.152Z,2.83
2022-10-30T05:35:23.752Z,2.53
2022-10-30T05:37:56.650Z,2.70
2022-10-30T05:40:29.507Z,2.42
2022-10-30T05:43:02.296Z,2.40
2022-10-30T05:45:35.622Z,2.33
2022-10-30T05:48:09.542Z,2.30
2022-10-30T05:50:48.373Z,2.20
2022-10-30T05:53:29.392Z,2.60
2022-10-30T05:56:03.637Z,2.70
2022-10-30T05:58:39.983Z,2.35
2022-10-30T06:01:13.230Z,2.40
2022-10-30T06:03:49.710Z,3.17
2022-10-30T06:06:22.346Z,2.70
2022-10-30T06:08:55.707Z,2.55
2022-10-30T06:11:43.228Z,2.80
2022-10-30T06:14:17.118Z,2.80
2022-10-30T06:16:53.776Z,2.80
2022-10-30T06:19:34.328Z,2.40
2022-10-30T06:22:21.211Z,2.70
2022-10-30T06:24:59.941Z,2.70
2022-10-30T06:27:46.339Z,2.78
2022-10-30T06:30:19.738Z,2.38
2022-10-30T06:32:58.720Z,2.60
2022-10-30T06:35:32.831Z,3.05
2022-10-30T06:38:06.737Z,2.88
2022-10-30T06:40:41.575Z,2.63
2022-10-30T06:43:14.559Z,2.20
2022-10-30T06:45:51.326Z,2.03
2022-10-30T06:48:24.091Z,2.25
2022-10-30T06:51:03.071Z,2.67
2022-10-30T06:53:38.749Z,2.47
2022-10-30T06:56:26.674Z,2.58
2022-10-30T06:59:11.910Z,2.47
2022-10-30T07:02:01.668Z,2.50
2022-10-30T07:04:45.966Z,2.45
2022-10-30T07:07:18.645Z,2.70
2022-10-30T07:09:51.542Z,2.58
2022-10-30T07:12:30.630Z,2.40
2022-10-30T07:15:18.350Z,3.55
2022-10-30T07:18:04.124Z,5.28
2022-10-30T07:20:40.770Z,4.05
2022-10-30T07:23:13.380Z,4.10
2022-10-30T07:25:46.163Z,4.63
2022-10-30T07:28:27.872Z,4.15
2022-10-30T07:31:20.166Z,4.13
2022-10-30T07:34:17.135Z,3.42
2022-10-30T07:37:02.970Z,3.63
2022-10-30T07:39:47.819Z,3.70
2022-10-30T07:42:36.254Z,4.22
2022-10-30T07:50:17.723Z,5.50
2022-10-30T07:52:50.614Z,5.40
2022-10-30T07:55:29.002Z,5.93
2022-10-30T07:58:17.546Z,5.75
2022-10-30T08:01:06.204Z,6.35
2022-10-30T08:03:40.209Z,7.70
2022-10-30T08:06:23.207Z,6.22
2022-10-30T08:08:59.126Z,7.97
2022-10-30T08:11:34.045Z,7.57
2022-10-30T08:14:07.164Z,8.00
2022-10-30T08:16:39.657Z,7.80
2022-10-30T08:19:15.329Z,11.10
2022-10-30T08:21:48.298Z,10.50
2022-10-30T08:24:24.583Z,10.60
2022-10-30T08:26:59.955Z,10.80
2022-10-30T08:29:35.224Z,9.68
2022-10-30T08:32:09.081Z,9.00
2022-10-30T08:34:57.072Z,9.00
2022-10-30T08:37:31.465Z,7.80
2022-10-30T08:40:04.766Z,8.07
2022-10-30T08:42:52.429Z,8.32
2022-10-30T08:45:29.866Z,8.63
2022-10-30T08:48:15.220Z,8.10
2022-10-30T08:50:49.838Z,8.70
2022-10-30T08:53:29.669Z,7.90
2022-10-30T08:56:05.821Z,8.40
2022-10-30T08:58:52.547Z,7.57
2022-10-30T09:01:25.533Z,8.98
2022-10-30T09:04:13.463Z,8.23
2022-10-30T09:07:02.121Z,8.52
2022-10-30T09:09:52.363Z,9.63
2022-10-30T09:12:25.521Z,10.68
2022-10-30T09:14:58.305Z,11.43
2022-10-30T09:17:31.071Z,10.00
2022-10-30T09:20:04.616Z,9.75
2022-10-30T09:22:42.508Z,12.75
2022-10-30T09:25:16.461Z,12.73
2022-10-30T09:27:53.558Z,11.50
2022-10-30T09:30:30.185Z,11.90
2022-10-30T09:33:03.893Z,12.95
2022-10-30T09:35:57.313Z,14.20
2022-10-30T09:38:30.301Z,13.45
2022-10-30T09:41:35.576Z,13.05
2022-10-30T09:44:30.788Z,13.25
2022-10-30T09:47:12.073Z,15.15
2022-10-30T09:49:53.958Z,14.07
2022-10-30T09:52:50.884Z,17.55
2022-10-30T09:55:40.664Z,18.63
2022-10-30T09:58:28.617Z,19.75
2022-10-30T10:01:13.828Z,20.98
2022-10-30T10:04:06.397Z,21.42
2022-10-30T10:06:53.418Z,19.15
2022-10-30T10:09:48.992Z,16.42
2022-10-30T10:13:00.201Z,17.25
2022-10-30T10:15:44.493Z,15.05
2022-10-30T10:18:23.371Z,13.27
2022-10-30T10:21:01.617Z,12.43
2022-10-30T10:23:49.924Z,12.73
2022-10-30T10:26:43.627Z,12.95
2022-10-30T10:29:34.829Z,11.85
2022-10-30T10:32:23.454Z,10.43
2022-10-30T10:35:13.005Z,10.65
2022-10-30T10:38:01.455Z,9.20
2022-10-30T10:40:53.781Z,9.43
2022-10-30T10:43:42.390Z,9.60
2022-10-30T10:46:31.876Z,9.18
2022-10-30T10:49:05.050Z,10.65
2022-10-30T10:51:42.719Z,9.48
2022-10-30T10:54:23.097Z,9.65
2022-10-30T10:56:59.570Z,10.70
2022-10-30T10:59:44.155Z,10.07
2022-10-30T11:02:24.980Z,11.20
2022-10-30T11:05:07.842Z,11.90
2022-10-30T11:07:48.394Z,11.48
2022-10-30T11:10:24.092Z,12.48
2022-10-30T11:12:57.006Z,14.07
2022-10-30T11:15:38.717Z,14.63
2022-10-30T11:18:11.683Z,14.50
2022-10-30T11:20:53.080Z,16.08
2022-10-30T11:23:44.296Z,15.23
2022-10-30T11:26:18.884Z,15.85
2022-10-30T11:29:09.366Z,16.38
2022-10-30T11:31:44.545Z,17.40
2022-10-30T11:34:18.866Z,14.30
2022-10-30T11:36:53.250Z,14.23
2022-10-30T11:39:29.888Z,14.00
2022-10-30T11:42:06.074Z,15.70
2022-10-30T11:44:41.713Z,14.95
2022-10-30T11:47:16.348Z,14.25
2022-10-30T11:49:54.581Z,14.30
2022-10-30T11:52:28.197Z,14.23
2022-10-30T11:55:08.850Z,15.43
2022-10-30T11:57:58.091Z,14.82
2022-10-30T12:00:34.802Z,15.70
2022-10-30T12:03:29.493Z,15.50
2022-10-30T12:06:10.852Z,14.90
2022-10-30T12:09:02.167Z,15.07
2022-10-30T12:11:36.619Z,15.23
2022-10-30T12:14:17.747Z,14.73
2022-10-30T12:16:53.162Z,14.30
2022-10-30T12:19:26.603Z,13.10
2022-10-30T12:22:02.495Z,14.35
2022-10-30T12:24:40.391Z,14.25
2022-10-30T12:27:19.828Z,13.90
2022-10-30T12:30:08.293Z,13.73
2022-10-30T12:32:49.687Z,13.85
2022-10-30T12:35:37.862Z,15.32
2022-10-30T12:38:34.045Z,14.65
2022-10-30T12:41:14.256Z,12.70
2022-10-30T12:43:55.025Z,13.15
2022-10-30T12:46:37.672Z,12.85
2022-10-30T12:49:15.112Z,13.50
2022-10-30T12:51:59.968Z,13.50
2022-10-30T12:54:43.968Z,13.07
2022-10-30T12:57:20.837Z,11.98
2022-10-30T13:00:07.200Z,11.63
2022-10-30T13:02:47.969Z,12.63
2022-10-30T13:05:21.487Z,12.70
2022-10-30T13:08:20.591Z,13.18
2022-10-30T13:10:59.251Z,12.95
2022-10-30T13:13:46.190Z,12.68
2022-10-30T13:16:22.503Z,13.00
2022-10-30T13:18:58.654Z,11.55
2022-10-30T13:21:54.195Z,12.27
2022-10-30T13:24:36.899Z,11.15
2022-10-30T13:27:24.019Z,10.13
2022-10-30T13:30:06.978Z,10.88
2022-10-30T13:32:46.644Z,11.55
2022-10-30T13:35:28.133Z,10.98
2022-10-30T13:38:17.575Z,10.40
2022-10-30T13:40:59.960Z,11.07
2022-10-30T13:43:49.749Z,11.93
2022-10-30T13:46:39.886Z,11.88
2022-10-30T13:49:32.340Z,9.63
2022-10-30T13:52:21.490Z,7.88
2022-10-30T13:55:18.269Z,9.02
2022-10-30T13:58:00.799Z,11.45
2022-10-30T14:00:36.095Z,8.30
2022-10-30T14:03:40.085Z,8.65
2022-10-30T14:06:16.819Z,8.45
2022-10-30T14:09:07.189Z,12.20
2022-10-30T14:11:39.750Z,17.77
2022-10-30T14:14:30.907Z,10.60
2022-10-30T14:17:10.326Z,8.23
2022-10-30T14:20:12.500Z,9.00
2022-10-30T14:23:09.347Z,9.45
2022-10-30T14:25:43.411Z,9.07
2022-10-30T14:28:21.102Z,9.05
2022-10-30T14:31:12.972Z,8.98
2022-10-30T14:33:50.852Z,9.20
2022-10-30T14:36:26.160Z,8.00
2022-10-30T14:39:16.869Z,7.65
2022-10-30T14:41:50.144Z,8.18
2022-10-30T14:44:29.527Z,8.15
2022-10-30T14:47:23.998Z,8.45
2022-10-30T14:50:15.247Z,9.02
2022-10-30T14:52:49.530Z,7.90
2022-10-30T14:55:48.018Z,8.37
2022-10-30T14:58:25.762Z,9.05
2022-10-30T15:01:10.595Z,7.93
2022-10-30T15:04:04.761Z,8.40
2022-10-30T15:06:53.290Z,7.00
2022-10-30T15:09:41.500Z,6.68
2022-10-30T15:12:25.969Z,7.35
2022-10-30T15:15:02.940Z,6.85
2022-10-30T15:17:42.308Z,7.22
2022-10-30T15:20:23.315Z,7.88
2022-10-30T15:23:03.132Z,6.50
2022-10-30T15:25:40.283Z,6.65
2022-10-30T15:28:19.830Z,5.85
2022-10-30T15:31:06.594Z,6.35
2022-10-30T15:33:41.333Z,5.65
2022-10-30T15:36:23.699Z,5.90
2022-10-30T15:39:14.717Z,6.43
2022-10-30T15:41:58.856Z,8.95
2022-10-30T15:44:34.443Z,6.68
2022-10-30T15:47:16.547Z,6.22
2022-10-30T15:49:55.609Z,7.13
2022-10-30T15:52:33.111Z,6.40
2022-10-30T15:55:10.738Z,6.60
2022-10-30T15:58:02.831Z,5.63
2022-10-30T16:00:38.721Z,7.75
2022-10-30T16:03:15.487Z,5.95
2022-10-30T16:05:48.205Z,6.38
2022-10-30T16:08:26.298Z,6.22
2022-10-30T16:11:00.505Z,5.75
2022-10-30T16:13:35.605Z,6.45
2022-10-30T16:16:27.795Z,7.20
2022-10-30T16:19:03.749Z,5.78
2022-10-30T16:21:37.526Z,6.25
2022-10-30T16:24:11.018Z,6.13
2022-10-30T16:26:43.980Z,6.40
2022-10-30T16:29:26.472Z,6.55
2022-10-30T16:32:01.158Z,6.70
2022-10-30T16:34:36.186Z,5.95
2022-10-30T16:37:16.715Z,7.15
2022-10-30T16:39:52.013Z,6.35
2022-10-30T16:42:26.304Z,6.55
2022-10-30T16:45:14.091Z,6.15
2022-10-30T16:47:53.125Z,6.57
2022-10-30T16:50:34.200Z,7.75
2022-10-30T16:53:15.655Z,8.25
2022-10-30T16:55:48.824Z,8.40
2022-10-30T16:58:24.569Z,7.85
2022-10-30T17:01:05.448Z,7.45
2022-10-30T17:03:41.933Z,7.50
2022-10-30T17:06:31.071Z,6.82
2022-10-30T17:09:09.592Z,8.20
2022-10-30T17:11:49.915Z,10.75
2022-10-30T17:14:23.471Z,12.07
2022-10-30T17:17:00.888Z,14.45
2022-10-30T17:19:35.816Z,10.43
2022-10-30T17:22:14.491Z,7.82
2022-10-30T17:24:48.535Z,8.20
2022-10-30T17:27:32.314Z,9.55
2022-10-30T17:30:35.113Z,8.38
2022-10-30T17:33:24.222Z,8.40
2022-10-30T17:35:57.117Z,7.38
2022-10-30T17:38:30.791Z,8.98
2022-10-30T17:41:04.534Z,7.93
2022-10-30T17:43:50.130Z,8.98
2022-10-30T17:46:23.820Z,8.48
2022-10-30T17:48:59.433Z,9.05
2022-10-30T17:51:32.672Z,8.15
2022-10-30T17:54:13.814Z,14.55
2022-10-30T17:56:46.378Z,10.27
2022-10-30T17:59:19.651Z,8.90
2022-10-30T18:01:52.355Z,9.35
2022-10-30T18:04:26.055Z,8.98
2022-10-30T18:06:58.668Z,8.48
2022-10-30T18:09:33.208Z,8.82
2022-10-30T18:12:08.091Z,16.05
2022-10-30T18:14:40.838Z,22.23
2022-10-30T18:17:13.804Z,19.90
2022-10-30T18:19:48.098Z,12.05
2022-10-30T18:22:20.849Z,11.20
2022-10-30T18:24:54.373Z,9.93
2022-10-30T18:27:27.684Z,9.45
2022-10-30T18:30:01.963Z,8.13
2022-10-30T18:32:35.515Z,8.18
2022-10-30T18:35:14.921Z,7.93
2022-10-30T18:37:48.297Z,7.93
2022-10-30T18:40:22.629Z,8.95
2022-10-30T18:42:56.580Z,8.27
2022-10-30T18:45:35.696Z,7.65
2022-10-30T18:48:09.359Z,7.75
2022-10-30T18:50:45.196Z,7.50
2022-10-30T18:53:19.372Z,7.22
2022-10-30T18:55:52.269Z,7.32
2022-10-30T18:58:24.993Z,7.85
2022-10-30T19:01:11.544Z,8.23
2022-10-30T19:03:46.890Z,7.25
2022-10-30T19:06:23.123Z,7.43
2022-10-30T19:08:56.671Z,8.20
2022-10-30T19:11:31.742Z,7.85
2022-10-30T19:14:11.837Z,7.82
2022-10-30T19:16:44.554Z,7.80
2022-10-30T19:19:18.168Z,7.68
2022-10-30T19:21:53.046Z,7.65
2022-10-30T19:24:27.405Z,7.78
2022-10-30T19:27:01.524Z,7.70
2022-10-30T19:29:34.304Z,7.38
2022-10-30T19:32:07.501Z,7.88
2022-10-30T19:34:46.247Z,7.80
2022-10-30T19:37:19.697Z,7.85
2022-10-30T19:39:53.206Z,8.40
2022-10-30T19:42:25.974Z,8.25
2022-10-30T19:44:58.806Z,7.38
2022-10-30T19:47:32.373Z,7.47
2022-10-30T19:50:23.662Z,7.68
2022-10-30T19:53:00.295Z,8.32
2022-10-30T19:55:36.375Z,9.05
2022-10-30T19:58:15.103Z,8.82
2022-10-30T20:00:48.190Z,8.07
2022-10-30T20:03:21.555Z,7.75
2022-10-30T20:05:56.291Z,7.72
2022-10-30T20:08:29.586Z,8.02
2022-10-30T20:11:02.861Z,7.88
2022-10-30T20:13:37.690Z,7.00
2022-10-30T20:16:11.818Z,7.43
2022-10-30T20:18:47.036Z,7.18
2022-10-30T20:23:53.269Z,7.57
2022-10-30T20:26:29.806Z,7.13
2022-10-30T20:29:04.734Z,7.15
2022-10-30T20:34:13.398Z,7.60
2022-10-30T20:36:46.234Z,7.20
2022-10-30T20:39:19.058Z,6.70
2022-10-30T20:41:51.689Z,6.50
2022-10-30T20:44:24.247Z,6.88
2022-10-30T20:46:57.450Z,6.63
2022-10-30T20:49:30.993Z,6.93
2022-10-30T20:52:04.080Z,6.45
2022-10-30T20:54:36.840Z,5.80
2022-10-30T20:57:09.901Z,6.57
2022-10-30T20:59:42.797Z,6.53
2022-10-30T21:02:17.346Z,6.75
2022-10-30T21:04:50.406Z,7.00
2022-10-30T21:07:24.812Z,6.68
2022-10-30T21:09:58.873Z,6.27
2022-10-30T21:12:31.716Z,6.75
2022-10-30T21:15:05.637Z,6.72
2022-10-30T21:17:38.015Z,7.25
2022-10-30T21:20:11.407Z,6.13
2022-10-30T21:22:44.121Z,6.82
2022-10-30T21:25:17.061Z,7.55
2022-10-30T21:27:49.715Z,6.82
2022-10-30T21:30:22.758Z,6.38
2022-10-30T21:32:55.395Z,6.22
2022-10-30T21:35:28.423Z,7.18
2022-10-30T21:38:02.321Z,7.15
2022-10-30T21:40:35.161Z,7.20
2022-10-30T21:43:08.047Z,8.73
2022-10-30T21:45:40.807Z,11.38
2022-10-30T21:48:13.389Z,15.85
2022-10-30T21:50:46.345Z,11.43
2022-10-30T21:53:18.863Z,8.10
2022-10-30T21:55:51.312Z,6.97
2022-10-30T21:58:23.827Z,7.15
2022-10-30T22:00:56.395Z,6.25
2022-10-30T22:03:28.991Z,5.30
2022-10-30T22:06:07.690Z,5.53
2022-10-30T22:08:40.414Z,5.20
2022-10-30T22:11:13.908Z,5.68
2022-10-30T22:13:47.856Z,5.40
2022-10-30T22:16:20.721Z,4.72
2022-10-30T22:18:53.224Z,5.22
2022-10-30T22:21:26.125Z,5.10
2022-10-30T22:24:01.187Z,4.95
2022-10-30T22:26:33.914Z,5.38
2022-10-30T22:29:06.516Z,4.68
2022-10-30T22:31:39.137Z,5.43
2022-10-30T22:34:11.758Z,4.78
2022-10-30T22:36:44.456Z,5.03
2022-10-30T22:39:17.046Z,5.10
2022-10-30T22:41:49.800Z,4.80
2022-10-30T22:44:23.366Z,4.68
2022-10-30T22:46:55.966Z,5.45
2022-10-30T22:49:28.524Z,5.13
2022-10-30T22:52:01.123Z,4.90
2022-10-30T22:54:33.588Z,4.45
2022-10-30T22:57:06.161Z,4.45
2022-10-30T22:59:38.760Z,4.50
2022-10-30T23:02:11.431Z,5.13
2022-10-30T23:04:44.047Z,4.30
2022-10-30T23:07:17.277Z,4.95
2022-10-30T23:09:49.827Z,4.80
2022-10-30T23:12:22.399Z,4.80
2022-10-30T23:14:55.026Z,4.60
2022-10-30T23:17:27.701Z,4.57
2022-10-30T23:20:00.286Z,4.95
2022-10-30T23:22:32.841Z,4.43
2022-10-30T23:25:05.645Z,4.65
2022-10-30T23:27:38.171Z,4.70
2022-10-30T23:30:11.520Z,4.60
2022-10-30T23:32:44.189Z,4.70
2022-10-30T23:35:16.679Z,4.80
2022-10-30T23:37:49.292Z,4.38
2022-10-30T23:40:21.865Z,4.82
2022-10-30T23:42:55.422Z,5.22
2022-10-30T23:45:27.859Z,4.10
2022-10-30T23:48:00.913Z,4.55
2022-10-30T23:50:35.907Z,4.82
2022-10-30T23:53:08.408Z,5.30
2022-10-30T23:55:40.988Z,4.38
2022-10-30T23:58:13.773Z,5.38
